Latest Weather Observations for Barimunya

IDW60801

Issued at 6:05 am WST Monday 22 September 2014 (issued every 30 minutes, with the page automatically refreshed every 10 minutes)

About weather observations | Map of weather stations | Latest weather observations for WA | Other Formats
Station Details ID: 505053 Name: BARIMUNYA Lat: -22.67 Lon: 119.16 Height: 629.17 m
Data from the previous 72 hours. | See also: Recent months for locations in Western Australia
Date/Time
WST
Temp
°C
App
Temp
°C
Dew
Point
Rel
Hum
%
Delta-T
°C
Wind Press
QNH
hPa
Press
MSL
hPa
Rain
since 9 am
mm
Dir
 
Spd
km/h
Gust
km/h
Spd
kts
Gust
kts
22/06:00am 14.8 8.3 8.1 64 3.5 WSW 32 41 17 22 1018.3 1015.5 0.0
22/05:30am 15.1 8.9 9.5 69 3.0 WSW 32 48 17 26 1018.1 1015.2 0.0
22/05:25am 15.1 9.3 9.5 69 3.0 WSW 30 48 16 26 1018.0 1015.1 0.0
22/05:00am 15.5 10.0 10.5 72 2.7 SW 30 39 16 21 1017.9 1015.0 0.0
22/04:30am 16.4 9.4 11.3 72 2.8 WSW 39 54 21 29 1017.2 1014.4 0.0
22/04:00am 17.7 12.3 12.2 70 3.1 SW 32 48 17 26 1016.8 1013.9 0.0
22/03:30am 19.1 14.4 13.1 68 3.5 WSW 30 50 16 27 1016.4 1013.5 0.0
22/03:00am 19.9 15.0 12.4 62 4.3 WSW 30 48 16 26 1016.4 1013.5 0.0
22/02:50am 20.2 15.6 12.4 61 4.5 WSW 28 46 15 25 1016.5 1013.6 0.0
22/02:30am 20.6 16.0 12.3 59 4.8 WSW 28 39 15 21 1016.5 1013.6 0.0
22/02:00am 21.1 16.4 12.0 56 5.2 W 28 39 15 21 1016.6 1013.7 0.0
22/01:41am 21.6 16.9 11.9 54 5.6 W 28 46 15 25 1016.7 1013.8 0.0
22/01:30am 21.9 18.5 10.7 49 6.3 W 19 28 10 15 1016.7 1013.8 0.0
22/01:00am 23.1 17.8 9.8 43 7.4 W 28 37 15 20 1016.6 1013.7 0.0
22/12:30am 23.7 18.6 7.8 36 8.6 W 24 32 13 17 1016.6 1013.7 0.0
22/12:00am 24.3 19.4 7.0 33 9.3 W 22 30 12 16 1016.7 1013.8 0.0
 
Date/Time
WST
Temp
°C
App
Temp
°C
Dew
Point
Rel
Hum
%
Delta-T
°C
Wind Press
QNH
hPa
Press
MSL
hPa
Rain
since 9 am
mm
Dir
 
Spd
km/h
Gust
km/h
Spd
kts
Gust
kts
21/11:30pm 24.9 19.6 6.6 31 9.8 W 24 33 13 18 1016.9 1014.1 0.0
21/11:00pm 25.1 20.2 5.3 28 10.4 W 20 28 11 15 1017.0 1014.2 0.0
21/10:30pm 25.3 21.9 6.0 29 10.2 W 13 19 7 10 1017.2 1014.4 0.0
21/10:00pm 26.4 21.6 5.4 26 11.1 W 20 28 11 15 1017.5 1014.6 0.0
21/09:30pm 26.7 22.0 3.2 22 12.0 WNW 17 22 9 12 1017.5 1014.6 0.0
21/09:00pm 27.9 23.3 3.6 21 12.5 WNW 17 24 9 13 1017.2 1014.4 0.0
21/08:30pm 29.0 24.3 3.1 19 13.4 NW 17 26 9 14 1017.0 1014.2 0.0
21/08:00pm 29.3 24.6 3.3 19 13.5 NW 17 28 9 15 1016.7 1013.8 0.0
21/07:30pm 29.5 24.2 1.9 17 14.0 NW 19 26 10 14 1016.5 1013.6 0.0
21/07:00pm 30.0 24.6 1.5 16 14.4 NW 19 28 10 15 1016.2 1013.3 0.0
21/06:30pm 30.5 24.9 1.0 15 14.8 NW 20 35 11 19 1015.8 1012.9 0.0
21/06:00pm 31.2 24.4 0.6 14 15.3 NW 26 39 14 21 1015.3 1012.4 0.0
21/05:30pm 31.9 25.8 0.1 13 15.9 NW 22 35 12 19 1015.1 1012.2 0.0
21/05:00pm 32.9 26.5 0.9 13 16.3 NW 24 35 13 19 1015.0 1012.1 0.0
21/04:30pm 33.7 26.8 0.4 12 16.9 NW 26 35 14 19 1014.8 1011.9 0.0
21/04:00pm 33.5 26.6 0.2 12 16.8 NW 26 33 14 18 1014.6 1011.7 0.0
21/03:30pm 34.1 27.1 -0.5 11 17.3 N 26 43 14 23 1014.8 1011.9 0.0
21/03:00pm 33.9 26.5 -0.7 11 17.3 NNW 28 39 15 21 1015.0 1012.1 0.0
21/02:30pm 34.0 26.6 -0.6 11 17.3 NNW 28 43 15 23 1015.2 1012.3 0.0
21/02:00pm 34.8 27.5 0.0 11 17.6 N 28 46 15 25 1015.7 1012.8 0.0
21/01:58pm 34.8 27.5 0.0 11 17.7 NNW 28 46 15 25 1015.5 1012.7 0.0
21/01:30pm 33.7 26.8 0.4 12 16.9 NNW 26 41 14 22 1016.1 1013.2 0.0
21/01:00pm 33.5 27.2 -1.0 11 17.1 NW 22 35 12 19 1016.7 1013.8 0.0
21/12:30pm 33.4 26.7 -1.0 11 17.0 N 24 37 13 20 1017.4 1014.5 0.0
21/12:00pm 33.3 26.0 0.1 12 16.7 NNW 28 50 15 27 1017.9 1015.0 0.0
21/11:58am 33.3 26.0 0.1 12 16.7 NW 28 50 15 27 1017.9 1015.0 0.0
21/11:30am 32.7 27.2 1.7 14 16.0 WNW 20 35 11 19 1018.4 1015.6 0.0
21/11:00am 31.4 26.6 2.6 16 14.9 W 17 24 9 13 1018.9 1016.1 0.0
21/10:30am 31.2 25.3 4.1 18 14.4 W 24 30 13 16 1019.5 1016.6 0.0
21/10:00am 30.8 25.3 2.1 16 14.7 W 20 30 11 16 1019.8 1017.0 0.0
21/09:30am 29.9 24.8 3.0 18 13.9 W 19 24 10 13 1019.9 1017.1 0.0
21/09:00am 28.2 23.6 3.8 21 12.6 WSW 17 24 9 13 1020.1 1017.3 0.0
21/08:30am 26.9 21.8 4.0 23 11.8 W 20 26 11 14 1020.1 1017.3 0.0
21/08:00am 24.7 21.3 3.9 26 10.6 WSW 11 15 6 8 1020.0 1017.2 0.0
21/07:30am 23.5 19.7 4.0 28 9.9 WSW 13 17 7 9 1019.6 1016.7 0.0
21/07:00am 22.1 19.0 3.7 30 9.2 W 9 15 5 8 1019.3 1016.4 0.0
21/06:30am 19.9 17.3 3.2 33 8.1 W 6 9 3 5 1018.8 1016.0 0.0
21/06:00am 20.2 17.3 2.5 31 8.5 WSW 7 13 4 7 1018.6 1015.8 0.0
21/05:30am 20.7 17.4 2.5 30 8.8 W 9 15 5 8 1018.4 1015.6 0.0
21/05:00am 21.5 18.2 2.7 29 9.1 WSW 9 11 5 6 1018.1 1015.2 0.0
21/04:30am 21.1 17.8 2.4 29 9.0 WSW 9 13 5 7 1018.0 1015.1 0.0
21/04:00am 21.3 18.0 2.6 29 9.1 W 9 11 5 6 1017.9 1015.0 0.0
21/03:30am 21.7 18.4 2.4 28 9.4 W 9 17 5 9 1017.9 1015.0 0.0
21/03:00am 21.8 19.1 2.5 28 9.4 WSW 6 7 3 4 1017.9 1015.0 0.0
21/02:30am 22.5 19.7 2.1 26 9.9 SW 6 9 3 5 1018.1 1015.2 0.0
21/02:00am 22.4 18.3 2.5 27 9.7 WNW 13 19 7 10 1018.2 1015.3 0.0
21/01:30am 21.5 18.1 1.7 27 9.5 W 9 11 5 6 1018.3 1015.5 0.0
21/01:00am 22.2 18.4 1.8 26 9.8 W 11 15 6 8 1018.4 1015.6 0.0
21/12:30am 22.2 19.1 1.3 25 10.0 WSW 7 9 4 5 1018.5 1015.7 0.0
21/12:00am 22.8 20.2 1.2 24 10.3 WSW 4 9 2 5 1018.7 1015.9 0.0
 
Date/Time
WST
Temp
°C
App
Temp
°C
Dew
Point
Rel
Hum
%
Delta-T
°C
Wind Press
QNH
hPa
Press
MSL
hPa
Rain
since 9 am
mm
Dir
 
Spd
km/h
Gust
km/h
Spd
kts
Gust
kts
20/11:30pm 24.1 20.6 1.1 22 11.1 W 9 13 5 7 1018.8 1016.0 0.0
20/11:00pm 25.3 22.2 1.4 21 11.7 NW 7 11 4 6 1018.8 1016.0 0.0
20/10:30pm 24.9 23.1 1.1 21 11.5 CALM 0 6 0 3 1018.9 1016.1 0.0
20/10:00pm 27.0 23.4 0.7 18 12.8 WNW 9 13 5 7 1019.1 1016.2 0.0
20/09:30pm 26.7 22.7 0.4 18 12.7 NNW 11 15 6 8 1019.2 1016.3 0.0
20/09:00pm 27.0 23.0 0.7 18 12.8 NNW 11 13 6 7 1019.3 1016.4 0.0
20/08:30pm 27.7 23.8 1.2 18 13.1 NW 11 13 6 7 1019.1 1016.2 0.0
20/08:00pm 27.7 23.3 0.5 17 13.3 NNW 13 15 7 8 1018.8 1016.0 0.0
20/07:30pm 28.2 24.3 0.9 17 13.5 NW 11 13 6 7 1018.4 1015.6 0.0
20/07:00pm 27.9 24.3 0.6 17 13.4 NNW 9 11 5 6 1018.0 1015.1 0.0
20/06:30pm 29.1 25.5 0.7 16 14.1 NNW 9 15 5 8 1017.7 1014.8 0.0
20/06:00pm 30.4 26.8 0.9 15 14.8 NNW 9 13 5 7 1017.2 1014.4 0.0
20/05:30pm 32.0 28.0 0.2 13 15.9 NNW 11 15 6 8 1016.9 1014.1 0.0
20/05:00pm 32.5 27.0 0.6 13 16.1 NW 19 30 10 16 1016.8 1013.9 0.0
20/04:30pm 32.9 27.7 -0.2 12 16.5 NNW 17 26 9 14 1016.6 1013.7 0.0
20/04:00pm 32.9 26.3 -0.2 12 16.5 NW 24 30 13 16 1016.5 1013.6 0.0
20/03:30pm 33.0 28.1 -0.2 12 16.6 NNW 15 26 8 14 1016.4 1013.5 0.0
20/03:00pm 33.6 28.3 -0.9 11 17.1 N 17 32 9 17 1016.4 1013.5 0.0
20/02:30pm 33.9 28.2 0.5 12 17.0 NW 20 24 11 13 1016.5 1013.6 0.0
20/02:00pm 33.3 27.4 -1.1 11 17.0 NW 20 32 11 17 1016.8 1013.9 0.0
20/01:30pm 32.9 28.4 -0.2 12 16.5 N 13 20 7 11 1017.1 1014.3 0.0
20/01:00pm 32.4 27.1 -0.6 12 16.3 NW 17 24 9 13 1017.6 1014.7 0.0
20/12:30pm 33.1 26.5 -0.1 12 16.6 N 24 37 13 20 1018.1 1015.2 0.0
20/12:00pm 32.2 26.3 -0.8 12 16.2 N 20 28 11 15 1018.5 1015.7 0.0
20/11:30am 31.1 25.8 -0.5 13 15.5 NNW 17 32 9 17 1019.1 1016.2 0.0
20/11:00am 31.1 25.4 -0.5 13 15.5 N 19 30 10 16 1019.4 1016.5 0.0
20/10:30am 30.5 25.1 -1.0 13 15.3 N 17 26 9 14 1019.7 1016.9 0.0
20/10:00am 30.1 25.5 -1.3 13 15.1 N 13 20 7 11 1019.9 1017.1 0.0
20/09:30am 28.8 24.9 -1.3 14 14.4 W 9 13 5 7 1020.0 1017.2 0.0
20/09:00am 27.7 23.1 -1.3 15 13.7 WSW 13 19 7 10 1019.9 1017.1 0.0
20/08:30am 26.4 21.9 -0.6 17 12.8 W 13 17 7 9 1019.8 1017.0 0.0
20/08:00am 24.7 19.8 -0.4 19 11.8 W 15 19 8 10 1019.7 1016.9 0.0
20/07:30am 23.4 18.9 -0.1 21 11.0 W 13 17 7 9 1019.4 1016.5 0.0
20/07:00am 21.9 17.8 -0.1 23 10.2 W 11 15 6 8 1018.9 1016.1 0.0
20/06:30am 20.4 15.9 -0.3 25 9.4 W 13 15 7 8 1018.7 1015.9 0.0
20/06:00am 20.0 15.1 -0.6 25 9.3 W 15 17 8 9 1018.4 1015.6 0.0
20/05:30am 19.0 14.9 0.1 28 8.6 WNW 11 13 6 7 1018.1 1015.2 0.0
20/05:00am 19.9 15.9 0.4 27 9.0 WNW 11 13 6 7 1017.9 1015.0 0.0
20/04:30am 21.5 18.5 0.7 25 9.8 W 6 11 3 6 1017.7 1014.8 0.0
20/04:00am 20.8 17.2 0.6 26 9.4 WSW 9 11 5 6 1017.5 1014.6 0.0
20/03:30am 21.5 16.4 0.7 25 9.8 WNW 17 20 9 11 1017.2 1014.4 0.0
20/03:00am 21.7 17.0 0.8 25 9.8 WNW 15 20 8 11 1017.4 1014.5 0.0
20/02:30am 21.2 16.7 -0.1 24 9.8 WNW 13 15 7 8 1017.5 1014.6 0.0
20/02:00am 20.5 16.4 -0.2 25 9.4 W 11 13 6 7 1017.7 1014.8 0.0
20/01:30am 20.0 17.2 -0.6 25 9.3 WNW 4 7 2 4 1017.8 1014.9 0.0
20/01:00am 21.4 18.2 -0.6 23 10.0 W 6 11 3 6 1018.1 1015.2 0.0
20/12:30am 22.0 17.7 -1.3 21 10.6 SW 11 13 6 7 1018.2 1015.3 0.0
20/12:00am 23.2 19.4 -1.0 20 11.1 W 9 13 5 7 1018.3 1015.5 0.0
 
Date/Time
WST
Temp
°C
App
Temp
°C
Dew
Point
Rel
Hum
%
Delta-T
°C
Wind Press
QNH
hPa
Press
MSL
hPa
Rain
since 9 am
mm
Dir
 
Spd
km/h
Gust
km/h
Spd
kts
Gust
kts
19/11:30pm 25.0 21.1 -1.7 17 12.3 NW 9 13 5 7 1018.4 1015.6 0.0
19/11:00pm 25.8 21.2 -1.1 17 12.6 NNW 13 17 7 9 1018.5 1015.7 0.0
19/10:30pm 25.3 21.1 -0.7 18 12.2 NNW 11 15 6 8 1018.7 1015.9 0.0
19/10:00pm 26.1 21.5 -0.8 17 12.7 N 13 17 7 9 1018.9 1016.1 0.0
19/09:30pm 26.6 21.6 -1.3 16 13.1 N 15 20 8 11 1018.9 1016.1 0.0
19/09:00pm 26.8 22.2 -1.1 16 13.1 N 13 17 7 9 1018.9 1016.1 0.0
19/08:30pm 26.2 21.5 -1.6 16 12.9 N 13 17 7 9 1018.9 1016.1 0.0
19/08:00pm 26.6 22.0 -1.3 16 13.1 N 13 15 7 8 1018.6 1015.8 0.0
19/07:30pm 25.8 21.6 -1.1 17 12.6 N 11 15 6 8 1018.3 1015.5 0.0
19/07:00pm 27.2 25.1 -0.8 16 13.3 CALM 0 0 0 0 1017.9 1015.0 0.0
19/06:30pm 27.9 24.6 -1.1 15 13.8 N 6 11 3 6 1017.4 1014.5 0.0
19/06:00pm 29.6 26.2 -1.7 13 14.9 W 6 9 3 5 1017.0 1014.2 0.0
19/05:30pm 31.2 27.4 -0.5 13 15.6 NW 9 11 5 6 1016.8 1013.9 0.0
19/05:00pm 31.9 28.1 -1.0 12 16.1 NW 9 15 5 8 1016.6 1013.7 0.0
19/04:30pm 32.0 28.6 -0.9 12 16.2 WNW 7 11 4 6 1016.4 1013.5 0.0
19/04:00pm 32.3 28.0 -1.9 11 16.5 W 11 17 6 9 1016.2 1013.3 0.0
19/03:30pm 31.7 27.5 -1.2 12 16.0 N 11 19 6 10 1016.3 1013.4 0.0
19/03:00pm 31.9 26.2 -1.0 12 16.1 N 19 28 10 15 1016.5 1013.6 0.0
19/02:30pm 31.6 27.5 -0.1 13 15.7 W 11 20 6 11 1016.5 1013.6 0.0
19/02:00pm 31.0 27.6 -0.6 13 15.5 S 7 15 4 8 1016.8 1013.9 0.0
19/01:30pm 30.9 26.7 -0.7 13 15.5 W 11 17 6 9 1017.2 1014.4 0.0
19/01:00pm 30.3 27.2 -0.1 14 14.9 NNW 6 - 3 - 1017.8 1014.9 0.0
19/12:30pm 30.5 25.9 -1.0 13 15.3 NNW 13 19 7 10 1018.2 1015.3 0.0
19/12:00pm 30.5 24.7 0.0 14 15.0 WNW 20 32 11 17 1018.5 1015.7 0.0
19/11:30am 30.2 24.7 0.7 15 14.7 NNE 19 32 10 17 1019.2 1016.3 0.0
19/11:00am 29.0 25.8 0.7 16 14.0 WSW 7 13 4 7 1019.7 1016.9 0.0
19/10:30am 28.5 24.9 0.3 16 13.8 ESE 9 17 5 9 1020.0 1017.2 0.0
19/10:00am 28.1 24.5 0.8 17 13.4 S 9 19 5 10 1020.3 1017.5 0.0
19/09:30am 27.1 22.4 0.8 18 12.9 S 15 24 8 13 1020.3 1017.5 0.0
19/09:00am 26.4 21.8 1.7 20 12.2 SSE 15 19 8 10 1020.4 1017.6 -
19/08:30am 25.4 20.8 1.5 21 11.7 S 15 20 8 11 1020.4 1017.6 -
19/08:00am 24.0 20.2 1.6 23 10.9 SSW 11 15 6 8 1020.2 1017.4 -
19/07:30am 21.9 19.0 1.5 26 9.7 W 6 9 3 5 1019.9 1017.1 -
19/07:00am 20.2 17.2 1.1 28 8.9 W 6 9 3 5 1019.7 1016.9 -
19/06:30am 18.0 14.7 0.2 30 8.0 W 7 9 4 5 1019.4 1016.5 -

Other Formats:

Comma delimited format used in spreadsheet applications
http://www.bom.gov.au/fwo/IDW60801/IDW60801.99313.axf

JavaScript Object Notation format (JSON) in row-major order
http://www.bom.gov.au/fwo/IDW60801/IDW60801.99313.json